sensor_id;sensor_type;location;lat;lon;timestamp;P1;durP1;ratioP1;P2;durP2;ratioP2
8580;SDS011;4328;48.622;9.230;2023-07-28T00:01:42;4.17;;;3.13;;
8580;SDS011;4328;48.622;9.230;2023-07-28T00:04:10;3.33;;;3.07;;
8580;SDS011;4328;48.622;9.230;2023-07-28T00:06:36;3.50;;;2.90;;
8580;SDS011;4328;48.622;9.230;2023-07-28T00:09:03;3.00;;;2.73;;
8580;SDS011;4328;48.622;9.230;2023-07-28T00:11:29;3.27;;;3.07;;
8580;SDS011;4328;48.622;9.230;2023-07-28T00:13:56;2.77;;;2.57;;
8580;SDS011;4328;48.622;9.230;2023-07-28T00:16:22;5.10;;;3.10;;
8580;SDS011;4328;48.622;9.230;2023-07-28T00:18:49;3.27;;;2.97;;
8580;SDS011;4328;48.622;9.230;2023-07-28T00:21:16;2.60;;;2.50;;
8580;SDS011;4328;48.622;9.230;2023-07-28T00:23:43;4.10;;;2.90;;
8580;SDS011;4328;48.622;9.230;2023-07-28T00:26:09;4.37;;;3.07;;
8580;SDS011;4328;48.622;9.230;2023-07-28T00:28:35;3.20;;;2.90;;
8580;SDS011;4328;48.622;9.230;2023-07-28T00:31:02;2.70;;;2.50;;
8580;SDS011;4328;48.622;9.230;2023-07-28T00:33:28;4.17;;;3.10;;
8580;SDS011;4328;48.622;9.230;2023-07-28T00:35:55;3.00;;;2.80;;
8580;SDS011;4328;48.622;9.230;2023-07-28T00:38:22;3.30;;;3.00;;
8580;SDS011;4328;48.622;9.230;2023-07-28T00:40:49;5.10;;;3.30;;
8580;SDS011;4328;48.622;9.230;2023-07-28T00:43:15;3.30;;;3.00;;
8580;SDS011;4328;48.622;9.230;2023-07-28T00:45:42;3.20;;;3.00;;
8580;SDS011;4328;48.622;9.230;2023-07-28T00:48:10;4.17;;;3.50;;
8580;SDS011;4328;48.622;9.230;2023-07-28T00:50:37;4.93;;;3.57;;
8580;SDS011;4328;48.622;9.230;2023-07-28T00:53:04;3.40;;;3.10;;
8580;SDS011;4328;48.622;9.230;2023-07-28T00:55:32;3.37;;;3.07;;
8580;SDS011;4328;48.622;9.230;2023-07-28T00:57:58;3.93;;;3.00;;
8580;SDS011;4328;48.622;9.230;2023-07-28T01:00:25;4.27;;;3.07;;
8580;SDS011;4328;48.622;9.230;2023-07-28T01:02:51;3.53;;;3.03;;
8580;SDS011;4328;48.622;9.230;2023-07-28T01:05:18;3.90;;;3.10;;
8580;SDS011;4328;48.622;9.230;2023-07-28T01:07:47;3.03;;;2.83;;
8580;SDS011;4328;48.622;9.230;2023-07-28T01:10:18;3.23;;;2.93;;
8580;SDS011;4328;48.622;9.230;2023-07-28T01:12:50;3.47;;;2.80;;
8580;SDS011;4328;48.622;9.230;2023-07-28T01:15:16;3.20;;;2.90;;
8580;SDS011;4328;48.622;9.230;2023-07-28T01:17:42;5.37;;;3.40;;
8580;SDS011;4328;48.622;9.230;2023-07-28T01:20:09;4.40;;;2.60;;
8580;SDS011;4328;48.622;9.230;2023-07-28T01:22:41;4.70;;;3.30;;
8580;SDS011;4328;48.622;9.230;2023-07-28T01:25:14;3.40;;;3.10;;
8580;SDS011;4328;48.622;9.230;2023-07-28T01:27:43;3.27;;;3.00;;
8580;SDS011;4328;48.622;9.230;2023-07-28T01:30:10;3.40;;;3.10;;
8580;SDS011;4328;48.622;9.230;2023-07-28T01:32:36;3.77;;;3.20;;
8580;SDS011;4328;48.622;9.230;2023-07-28T01:35:02;3.40;;;3.10;;
8580;SDS011;4328;48.622;9.230;2023-07-28T01:37:29;3.73;;;3.30;;
8580;SDS011;4328;48.622;9.230;2023-07-28T01:39:55;3.37;;;3.07;;
8580;SDS011;4328;48.622;9.230;2023-07-28T01:42:22;2.90;;;2.70;;
8580;SDS011;4328;48.622;9.230;2023-07-28T01:44:51;3.20;;;3.00;;
8580;SDS011;4328;48.622;9.230;2023-07-28T01:47:17;3.13;;;2.80;;
8580;SDS011;4328;48.622;9.230;2023-07-28T01:49:43;4.73;;;2.93;;
8580;SDS011;4328;48.622;9.230;2023-07-28T01:52:10;3.00;;;2.80;;
8580;SDS011;4328;48.622;9.230;2023-07-28T01:54:36;4.10;;;2.77;;
8580;SDS011;4328;48.622;9.230;2023-07-28T01:57:03;5.07;;;3.07;;
8580;SDS011;4328;48.622;9.230;2023-07-28T01:59:29;4.60;;;2.90;;
8580;SDS011;4328;48.622;9.230;2023-07-28T02:01:57;4.57;;;2.93;;
8580;SDS011;4328;48.622;9.230;2023-07-28T02:04:24;3.20;;;3.00;;
8580;SDS011;4328;48.622;9.230;2023-07-28T02:06:50;3.50;;;2.73;;
8580;SDS011;4328;48.622;9.230;2023-07-28T02:09:17;3.40;;;3.20;;
8580;SDS011;4328;48.622;9.230;2023-07-28T02:11:43;4.07;;;2.90;;
8580;SDS011;4328;48.622;9.230;2023-07-28T02:14:10;3.10;;;2.90;;
8580;SDS011;4328;48.622;9.230;2023-07-28T02:16:36;3.20;;;2.90;;
8580;SDS011;4328;48.622;9.230;2023-07-28T02:19:04;3.60;;;2.93;;
8580;SDS011;4328;48.622;9.230;2023-07-28T02:21:30;4.90;;;3.13;;
8580;SDS011;4328;48.622;9.230;2023-07-28T02:23:56;3.17;;;2.97;;
8580;SDS011;4328;48.622;9.230;2023-07-28T02:26:23;6.13;;;2.80;;
8580;SDS011;4328;48.622;9.230;2023-07-28T02:28:49;2.93;;;2.73;;
8580;SDS011;4328;48.622;9.230;2023-07-28T02:31:16;2.77;;;2.57;;
8580;SDS011;4328;48.622;9.230;2023-07-28T02:33:42;3.60;;;3.30;;
8580;SDS011;4328;48.622;9.230;2023-07-28T02:36:10;3.30;;;3.00;;
8580;SDS011;4328;48.622;9.230;2023-07-28T02:38:36;3.20;;;3.00;;
8580;SDS011;4328;48.622;9.230;2023-07-28T02:41:03;3.97;;;3.13;;
8580;SDS011;4328;48.622;9.230;2023-07-28T02:43:30;5.37;;;3.50;;
8580;SDS011;4328;48.622;9.230;2023-07-28T02:45:57;3.37;;;3.07;;
8580;SDS011;4328;48.622;9.230;2023-07-28T02:48:23;3.43;;;3.13;;
8580;SDS011;4328;48.622;9.230;2023-07-28T02:50:50;3.17;;;2.97;;
8580;SDS011;4328;48.622;9.230;2023-07-28T02:53:18;3.27;;;2.67;;
8580;SDS011;4328;48.622;9.230;2023-07-28T02:55:45;3.10;;;2.90;;
8580;SDS011;4328;48.622;9.230;2023-07-28T02:58:11;3.23;;;2.93;;
8580;SDS011;4328;48.622;9.230;2023-07-28T03:00:38;3.40;;;2.80;;
8580;SDS011;4328;48.622;9.230;2023-07-28T03:03:05;3.20;;;2.90;;
8580;SDS011;4328;48.622;9.230;2023-07-28T03:05:31;3.27;;;2.80;;
8580;SDS011;4328;48.622;9.230;2023-07-28T03:07:58;3.00;;;2.80;;
8580;SDS011;4328;48.622;9.230;2023-07-28T03:10:26;2.90;;;2.67;;
8580;SDS011;4328;48.622;9.230;2023-07-28T03:12:52;2.93;;;2.73;;
8580;SDS011;4328;48.622;9.230;2023-07-28T03:15:19;3.63;;;3.20;;
8580;SDS011;4328;48.622;9.230;2023-07-28T03:17:47;3.23;;;2.90;;
8580;SDS011;4328;48.622;9.230;2023-07-28T03:20:13;8.27;;;3.53;;
8580;SDS011;4328;48.622;9.230;2023-07-28T03:22:39;3.40;;;3.00;;
8580;SDS011;4328;48.622;9.230;2023-07-28T03:25:06;2.83;;;2.67;;
8580;SDS011;4328;48.622;9.230;2023-07-28T03:27:34;5.53;;;2.60;;
8580;SDS011;4328;48.622;9.230;2023-07-28T03:30:00;4.67;;;2.90;;
8580;SDS011;4328;48.622;9.230;2023-07-28T03:32:27;3.43;;;2.80;;
8580;SDS011;4328;48.622;9.230;2023-07-28T03:34:53;3.83;;;3.10;;
8580;SDS011;4328;48.622;9.230;2023-07-28T03:37:20;4.13;;;2.77;;
8580;SDS011;4328;48.622;9.230;2023-07-28T03:39:46;3.80;;;2.97;;
8580;SDS011;4328;48.622;9.230;2023-07-28T03:42:13;2.90;;;2.70;;
8580;SDS011;4328;48.622;9.230;2023-07-28T03:44:42;3.17;;;2.90;;
8580;SDS011;4328;48.622;9.230;2023-07-28T03:47:09;5.20;;;2.90;;
8580;SDS011;4328;48.622;9.230;2023-07-28T03:49:35;3.70;;;2.60;;
8580;SDS011;4328;48.622;9.230;2023-07-28T03:52:01;3.47;;;3.20;;
8580;SDS011;4328;48.622;9.230;2023-07-28T03:54:28;4.03;;;3.60;;
8580;SDS011;4328;48.622;9.230;2023-07-28T03:56:54;4.03;;;3.67;;
8580;SDS011;4328;48.622;9.230;2023-07-28T03:59:21;3.43;;;3.13;;
8580;SDS011;4328;48.622;9.230;2023-07-28T04:01:48;5.23;;;3.27;;
8580;SDS011;4328;48.622;9.230;2023-07-28T04:04:15;5.13;;;4.33;;
8580;SDS011;4328;48.622;9.230;2023-07-28T04:06:42;7.57;;;6.00;;
8580;SDS011;4328;48.622;9.230;2023-07-28T04:09:08;5.53;;;5.03;;
8580;SDS011;4328;48.622;9.230;2023-07-28T04:11:35;5.83;;;5.30;;
8580;SDS011;4328;48.622;9.230;2023-07-28T04:14:01;4.83;;;4.43;;
8580;SDS011;4328;48.622;9.230;2023-07-28T04:16:28;5.03;;;4.57;;
8580;SDS011;4328;48.622;9.230;2023-07-28T04:18:56;5.33;;;4.43;;
8580;SDS011;4328;48.622;9.230;2023-07-28T04:21:22;5.53;;;4.67;;
8580;SDS011;4328;48.622;9.230;2023-07-28T04:23:49;6.53;;;4.93;;
8580;SDS011;4328;48.622;9.230;2023-07-28T04:26:15;4.50;;;4.10;;
8580;SDS011;4328;48.622;9.230;2023-07-28T04:28:42;4.47;;;4.13;;
8580;SDS011;4328;48.622;9.230;2023-07-28T04:31:08;5.27;;;4.80;;
8580;SDS011;4328;48.622;9.230;2023-07-28T04:33:34;4.77;;;4.27;;
8580;SDS011;4328;48.622;9.230;2023-07-28T04:36:03;5.27;;;4.77;;
8580;SDS011;4328;48.622;9.230;2023-07-28T04:38:29;4.40;;;4.00;;
8580;SDS011;4328;48.622;9.230;2023-07-28T04:40:56;4.60;;;4.20;;
8580;SDS011;4328;48.622;9.230;2023-07-28T04:43:22;4.17;;;3.87;;
8580;SDS011;4328;48.622;9.230;2023-07-28T04:45:49;4.53;;;4.13;;
8580;SDS011;4328;48.622;9.230;2023-07-28T04:48:15;5.37;;;3.53;;
8580;SDS011;4328;48.622;9.230;2023-07-28T04:50:41;4.90;;;3.93;;
8580;SDS011;4328;48.622;9.230;2023-07-28T04:53:09;3.93;;;3.63;;
8580;SDS011;4328;48.622;9.230;2023-07-28T04:55:35;6.90;;;4.40;;
8580;SDS011;4328;48.622;9.230;2023-07-28T04:58:02;6.33;;;4.33;;
8580;SDS011;4328;48.622;9.230;2023-07-28T05:00:28;5.67;;;4.57;;
8580;SDS011;4328;48.622;9.230;2023-07-28T05:02:55;6.80;;;4.57;;
8580;SDS011;4328;48.622;9.230;2023-07-28T05:05:21;5.67;;;4.37;;
8580;SDS011;4328;48.622;9.230;2023-07-28T05:07:48;4.07;;;3.77;;
8580;SDS011;4328;48.622;9.230;2023-07-28T05:10:15;5.50;;;3.70;;
8580;SDS011;4328;48.622;9.230;2023-07-28T05:12:42;4.33;;;3.30;;
8580;SDS011;4328;48.622;9.230;2023-07-28T05:15:08;4.27;;;3.70;;
8580;SDS011;4328;48.622;9.230;2023-07-28T05:17:35;4.13;;;3.67;;
8580;SDS011;4328;48.622;9.230;2023-07-28T05:20:01;4.60;;;3.87;;
8580;SDS011;4328;48.622;9.230;2023-07-28T05:22:28;7.57;;;3.83;;
8580;SDS011;4328;48.622;9.230;2023-07-28T05:24:54;4.90;;;3.80;;
8580;SDS011;4328;48.622;9.230;2023-07-28T05:27:22;3.90;;;3.60;;
8580;SDS011;4328;48.622;9.230;2023-07-28T05:29:49;4.30;;;3.90;;
8580;SDS011;4328;48.622;9.230;2023-07-28T05:32:15;3.57;;;3.30;;
8580;SDS011;4328;48.622;9.230;2023-07-28T05:34:41;3.90;;;3.47;;
8580;SDS011;4328;48.622;9.230;2023-07-28T05:37:08;4.37;;;3.50;;
8580;SDS011;4328;48.622;9.230;2023-07-28T05:39:34;3.53;;;3.23;;
8580;SDS011;4328;48.622;9.230;2023-07-28T05:42:01;4.30;;;2.90;;
8580;SDS011;4328;48.622;9.230;2023-07-28T05:44:29;3.87;;;3.50;;
8580;SDS011;4328;48.622;9.230;2023-07-28T05:46:55;3.83;;;2.83;;
8580;SDS011;4328;48.622;9.230;2023-07-28T05:49:21;4.23;;;2.77;;
8580;SDS011;4328;48.622;9.230;2023-07-28T05:51:48;3.77;;;2.70;;
8580;SDS011;4328;48.622;9.230;2023-07-28T05:54:14;3.07;;;2.87;;
8580;SDS011;4328;48.622;9.230;2023-07-28T05:56:41;3.33;;;3.13;;
8580;SDS011;4328;48.622;9.230;2023-07-28T05:59:07;3.20;;;2.93;;
8580;SDS011;4328;48.622;9.230;2023-07-28T06:01:35;3.80;;;3.40;;
8580;SDS011;4328;48.622;9.230;2023-07-28T06:04:01;3.90;;;3.60;;
8580;SDS011;4328;48.622;9.230;2023-07-28T06:06:28;4.67;;;3.40;;
8580;SDS011;4328;48.622;9.230;2023-07-28T06:08:54;3.90;;;3.60;;
8580;SDS011;4328;48.622;9.230;2023-07-28T06:11:21;3.53;;;3.23;;
8580;SDS011;4328;48.622;9.230;2023-07-28T06:13:47;3.10;;;2.90;;
8580;SDS011;4328;48.622;9.230;2023-07-28T06:16:13;3.80;;;3.30;;
8580;SDS011;4328;48.622;9.230;2023-07-28T06:18:41;3.43;;;3.13;;
8580;SDS011;4328;48.622;9.230;2023-07-28T06:21:08;5.67;;;3.20;;
8580;SDS011;4328;48.622;9.230;2023-07-28T06:23:34;3.10;;;2.90;;
8580;SDS011;4328;48.622;9.230;2023-07-28T06:26:01;5.00;;;3.23;;
8580;SDS011;4328;48.622;9.230;2023-07-28T06:28:27;3.43;;;3.00;;
8580;SDS011;4328;48.622;9.230;2023-07-28T06:30:54;5.27;;;3.10;;
8580;SDS011;4328;48.622;9.230;2023-07-28T06:33:21;3.50;;;3.00;;
8580;SDS011;4328;48.622;9.230;2023-07-28T06:35:48;3.47;;;3.17;;
8580;SDS011;4328;48.622;9.230;2023-07-28T06:38:15;3.60;;;3.30;;
8580;SDS011;4328;48.622;9.230;2023-07-28T06:40:42;3.73;;;2.90;;
8580;SDS011;4328;48.622;9.230;2023-07-28T06:43:08;4.23;;;3.37;;
8580;SDS011;4328;48.622;9.230;2023-07-28T06:45:35;4.97;;;3.10;;
8580;SDS011;4328;48.622;9.230;2023-07-28T06:48:01;5.13;;;3.80;;
8580;SDS011;4328;48.622;9.230;2023-07-28T06:50:28;3.20;;;3.00;;
8580;SDS011;4328;48.622;9.230;2023-07-28T06:52:56;3.27;;;3.00;;
8580;SDS011;4328;48.622;9.230;2023-07-28T06:55:22;3.50;;;3.20;;
8580;SDS011;4328;48.622;9.230;2023-07-28T06:57:48;2.90;;;2.70;;
8580;SDS011;4328;48.622;9.230;2023-07-28T07:00:15;3.70;;;3.00;;
8580;SDS011;4328;48.622;9.230;2023-07-28T07:02:43;3.87;;;3.20;;
8580;SDS011;4328;48.622;9.230;2023-07-28T07:05:09;3.30;;;2.90;;
8580;SDS011;4328;48.622;9.230;2023-07-28T07:07:36;3.60;;;3.20;;
8580;SDS011;4328;48.622;9.230;2023-07-28T07:10:05;3.70;;;3.03;;
8580;SDS011;4328;48.622;9.230;2023-07-28T07:12:32;3.00;;;2.80;;
8580;SDS011;4328;48.622;9.230;2023-07-28T07:14:59;3.03;;;2.73;;
8580;SDS011;4328;48.622;9.230;2023-07-28T07:17:25;3.07;;;2.87;;
8580;SDS011;4328;48.622;9.230;2023-07-28T07:19:52;3.03;;;2.70;;
8580;SDS011;4328;48.622;9.230;2023-07-28T07:22:18;3.07;;;2.87;;
8580;SDS011;4328;48.622;9.230;2023-07-28T07:24:45;2.73;;;2.53;;
8580;SDS011;4328;48.622;9.230;2023-07-28T07:27:13;3.37;;;2.80;;
8580;SDS011;4328;48.622;9.230;2023-07-28T07:29:39;3.13;;;2.80;;
8580;SDS011;4328;48.622;9.230;2023-07-28T07:32:06;3.00;;;2.80;;
8580;SDS011;4328;48.622;9.230;2023-07-28T07:34:33;3.00;;;2.70;;
8580;SDS011;4328;48.622;9.230;2023-07-28T07:36:59;3.00;;;2.80;;
8580;SDS011;4328;48.622;9.230;2023-07-28T07:39:26;2.67;;;2.47;;
8580;SDS011;4328;48.622;9.230;2023-07-28T07:41:52;3.00;;;2.80;;
8580;SDS011;4328;48.622;9.230;2023-07-28T07:44:21;2.60;;;2.40;;
8580;SDS011;4328;48.622;9.230;2023-07-28T07:46:47;3.10;;;2.90;;
8580;SDS011;4328;48.622;9.230;2023-07-28T07:49:13;3.07;;;2.83;;
8580;SDS011;4328;48.622;9.230;2023-07-28T07:51:40;2.73;;;2.53;;
8580;SDS011;4328;48.622;9.230;2023-07-28T07:54:06;2.43;;;2.33;;
8580;SDS011;4328;48.622;9.230;2023-07-28T07:56:33;2.67;;;2.43;;
8580;SDS011;4328;48.622;9.230;2023-07-28T07:58:59;4.20;;;2.70;;
8580;SDS011;4328;48.622;9.230;2023-07-28T08:01:27;2.83;;;2.60;;
8580;SDS011;4328;48.622;9.230;2023-07-28T08:03:53;2.73;;;2.53;;
8580;SDS011;4328;48.622;9.230;2023-07-28T08:06:20;2.80;;;2.60;;
8580;SDS011;4328;48.622;9.230;2023-07-28T08:08:46;2.63;;;2.43;;
8580;SDS011;4328;48.622;9.230;2023-07-28T08:11:12;2.87;;;2.67;;
8580;SDS011;4328;48.622;9.230;2023-07-28T08:13:39;2.77;;;2.57;;
8580;SDS011;4328;48.622;9.230;2023-07-28T08:16:05;2.90;;;2.70;;
8580;SDS011;4328;48.622;9.230;2023-07-28T08:18:33;2.73;;;2.53;;
8580;SDS011;4328;48.622;9.230;2023-07-28T08:20:59;2.50;;;2.40;;
8580;SDS011;4328;48.622;9.230;2023-07-28T08:23:26;2.90;;;2.60;;
8580;SDS011;4328;48.622;9.230;2023-07-28T08:25:52;2.70;;;2.50;;
8580;SDS011;4328;48.622;9.230;2023-07-28T08:28:19;3.60;;;2.63;;
8580;SDS011;4328;48.622;9.230;2023-07-28T08:30:52;2.40;;;2.30;;
8580;SDS011;4328;48.622;9.230;2023-07-28T08:33:20;3.30;;;2.57;;
8580;SDS011;4328;48.622;9.230;2023-07-28T08:35:48;3.60;;;2.30;;
8580;SDS011;4328;48.622;9.230;2023-07-28T08:38:15;3.67;;;2.60;;
8580;SDS011;4328;48.622;9.230;2023-07-28T08:40:43;3.30;;;2.53;;
8580;SDS011;4328;48.622;9.230;2023-07-28T08:43:09;2.70;;;2.50;;
8580;SDS011;4328;48.622;9.230;2023-07-28T08:45:35;1.80;;;1.70;;
8580;SDS011;4328;48.622;9.230;2023-07-28T08:48:03;2.30;;;2.10;;
8580;SDS011;4328;48.622;9.230;2023-07-28T08:50:29;2.40;;;1.77;;
8580;SDS011;4328;48.622;9.230;2023-07-28T08:52:57;2.55;;;2.17;;
8580;SDS011;4328;48.622;9.230;2023-07-28T08:55:24;2.75;;;1.98;;
8580;SDS011;4328;48.622;9.230;2023-07-28T08:57:51;2.03;;;1.60;;
8580;SDS011;4328;48.622;9.230;2023-07-28T09:00:18;2.13;;;1.60;;
8580;SDS011;4328;48.622;9.230;2023-07-28T09:02:45;1.90;;;1.80;;
8580;SDS011;4328;48.622;9.230;2023-07-28T09:05:18;1.90;;;1.80;;
8580;SDS011;4328;48.622;9.230;2023-07-28T09:07:45;1.40;;;1.40;;
8580;SDS011;4328;48.622;9.230;2023-07-28T09:10:14;1.88;;;1.77;;
8580;SDS011;4328;48.622;9.230;2023-07-28T09:12:47;1.70;;;1.60;;
8580;SDS011;4328;48.622;9.230;2023-07-28T09:15:13;2.45;;;1.77;;
8580;SDS011;4328;48.622;9.230;2023-07-28T09:17:42;1.70;;;1.60;;
8580;SDS011;4328;48.622;9.230;2023-07-28T09:20:09;1.70;;;1.60;;
8580;SDS011;4328;48.622;9.230;2023-07-28T09:22:38;2.60;;;2.00;;
8580;SDS011;4328;48.622;9.230;2023-07-28T09:25:11;2.10;;;2.00;;
8580;SDS011;4328;48.622;9.230;2023-07-28T09:27:39;2.20;;;1.77;;
8580;SDS011;4328;48.622;9.230;2023-07-28T09:30:06;2.00;;;1.90;;
8580;SDS011;4328;48.622;9.230;2023-07-28T09:32:33;4.03;;;1.70;;
8580;SDS011;4328;48.622;9.230;2023-07-28T09:35:08;2.13;;;1.92;;
8580;SDS011;4328;48.622;9.230;2023-07-28T09:37:36;1.90;;;1.80;;
8580;SDS011;4328;48.622;9.230;2023-07-28T09:40:03;2.30;;;1.90;;
8580;SDS011;4328;48.622;9.230;2023-07-28T09:42:31;1.95;;;1.85;;
8580;SDS011;4328;48.622;9.230;2023-07-28T09:44:59;1.95;;;1.85;;
8580;SDS011;4328;48.622;9.230;2023-07-28T09:47:26;1.83;;;1.73;;
8580;SDS011;4328;48.622;9.230;2023-07-28T09:49:53;1.73;;;1.63;;
8580;SDS011;4328;48.622;9.230;2023-07-28T09:52:20;1.70;;;1.60;;
8580;SDS011;4328;48.622;9.230;2023-07-28T09:54:49;2.10;;;2.00;;
8580;SDS011;4328;48.622;9.230;2023-07-28T09:57:19;1.95;;;1.85;;
8580;SDS011;4328;48.622;9.230;2023-07-28T09:59:46;1.85;;;1.75;;
8580;SDS011;4328;48.622;9.230;2023-07-28T10:02:14;1.80;;;1.70;;
8580;SDS011;4328;48.622;9.230;2023-07-28T10:04:41;2.10;;;1.95;;
8580;SDS011;4328;48.622;9.230;2023-07-28T10:07:08;2.53;;;1.90;;
8580;SDS011;4328;48.622;9.230;2023-07-28T10:09:35;1.80;;;1.70;;
8580;SDS011;4328;48.622;9.230;2023-07-28T10:12:03;1.83;;;1.73;;
8580;SDS011;4328;48.622;9.230;2023-07-28T10:14:30;1.95;;;1.85;;
8580;SDS011;4328;48.622;9.230;2023-07-28T10:16:57;1.92;;;1.77;;
8580;SDS011;4328;48.622;9.230;2023-07-28T10:19:25;1.63;;;1.52;;
8580;SDS011;4328;48.622;9.230;2023-07-28T10:21:58;1.70;;;1.60;;
8580;SDS011;4328;48.622;9.230;2023-07-28T10:27:06;2.35;;;1.98;;
8580;SDS011;4328;48.622;9.230;2023-07-28T10:29:36;2.20;;;1.60;;
8580;SDS011;4328;48.622;9.230;2023-07-28T10:32:03;1.92;;;1.70;;
8580;SDS011;4328;48.622;9.230;2023-07-28T10:34:31;1.88;;;1.75;;
8580;SDS011;4328;48.622;9.230;2023-07-28T10:36:58;1.80;;;1.70;;
8580;SDS011;4328;48.622;9.230;2023-07-28T10:39:24;2.08;;;1.58;;
8580;SDS011;4328;48.622;9.230;2023-07-28T10:41:59;2.00;;;1.90;;
8580;SDS011;4328;48.622;9.230;2023-07-28T10:44:26;2.95;;;1.60;;
8580;SDS011;4328;48.622;9.230;2023-07-28T10:46:53;1.70;;;1.60;;
8580;SDS011;4328;48.622;9.230;2023-07-28T10:49:19;1.70;;;1.60;;
8580;SDS011;4328;48.622;9.230;2023-07-28T10:51:47;1.50;;;1.40;;
8580;SDS011;4328;48.622;9.230;2023-07-28T10:54:14;2.10;;;1.77;;
8580;SDS011;4328;48.622;9.230;2023-07-28T10:56:44;1.60;;;1.50;;
8580;SDS011;4328;48.622;9.230;2023-07-28T10:59:11;2.20;;;2.00;;
8580;SDS011;4328;48.622;9.230;2023-07-28T11:01:38;1.90;;;1.80;;
8580;SDS011;4328;48.622;9.230;2023-07-28T11:04:06;1.83;;;1.73;;
8580;SDS011;4328;48.622;9.230;2023-07-28T11:06:32;1.95;;;1.80;;
8580;SDS011;4328;48.622;9.230;2023-07-28T11:09:00;1.98;;;1.80;;
8580;SDS011;4328;48.622;9.230;2023-07-28T11:11:26;1.70;;;1.60;;
8580;SDS011;4328;48.622;9.230;2023-07-28T11:13:53;2.00;;;1.70;;
8580;SDS011;4328;48.622;9.230;2023-07-28T11:16:20;2.08;;;1.98;;
8580;SDS011;4328;48.622;9.230;2023-07-28T11:18:47;3.08;;;1.80;;
8580;SDS011;4328;48.622;9.230;2023-07-28T11:21:16;2.10;;;2.00;;
8580;SDS011;4328;48.622;9.230;2023-07-28T11:23:44;1.45;;;1.45;;
8580;SDS011;4328;48.622;9.230;2023-07-28T11:26:11;2.00;;;1.90;;
8580;SDS011;4328;48.622;9.230;2023-07-28T11:28:39;1.80;;;1.67;;
8580;SDS011;4328;48.622;9.230;2023-07-28T11:31:05;1.85;;;1.75;;
8580;SDS011;4328;48.622;9.230;2023-07-28T11:33:32;3.58;;;1.88;;
8580;SDS011;4328;48.622;9.230;2023-07-28T11:35:58;3.78;;;2.20;;
8580;SDS011;4328;48.622;9.230;2023-07-28T11:38:24;1.70;;;1.60;;
8580;SDS011;4328;48.622;9.230;2023-07-28T11:40:52;2.13;;;2.00;;
8580;SDS011;4328;48.622;9.230;2023-07-28T11:43:21;2.92;;;2.08;;
8580;SDS011;4328;48.622;9.230;2023-07-28T11:45:48;3.43;;;1.80;;
8580;SDS011;4328;48.622;9.230;2023-07-28T11:48:14;4.27;;;2.20;;
8580;SDS011;4328;48.622;9.230;2023-07-28T11:50:41;5.20;;;2.50;;
8580;SDS011;4328;48.622;9.230;2023-07-28T11:53:08;7.97;;;2.87;;
8580;SDS011;4328;48.622;9.230;2023-07-28T11:55:35;2.37;;;2.17;;
8580;SDS011;4328;48.622;9.230;2023-07-28T11:58:02;3.70;;;2.43;;
8580;SDS011;4328;48.622;9.230;2023-07-28T12:00:31;2.33;;;2.20;;
8580;SDS011;4328;48.622;9.230;2023-07-28T12:03:03;2.40;;;2.20;;
8580;SDS011;4328;48.622;9.230;2023-07-28T12:05:29;3.10;;;2.73;;
8580;SDS011;4328;48.622;9.230;2023-07-28T12:07:56;4.70;;;2.43;;
8580;SDS011;4328;48.622;9.230;2023-07-28T12:10:22;4.07;;;2.60;;
8580;SDS011;4328;48.622;9.230;2023-07-28T12:12:49;3.40;;;2.53;;
8580;SDS011;4328;48.622;9.230;2023-07-28T12:15:19;2.53;;;2.33;;
8580;SDS011;4328;48.622;9.230;2023-07-28T12:18:01;3.33;;;2.33;;
8580;SDS011;4328;48.622;9.230;2023-07-28T12:20:32;2.37;;;2.27;;
8580;SDS011;4328;48.622;9.230;2023-07-28T12:22:58;4.73;;;2.70;;
8580;SDS011;4328;48.622;9.230;2023-07-28T12:25:25;2.90;;;2.40;;
8580;SDS011;4328;48.622;9.230;2023-07-28T12:27:51;2.70;;;2.40;;
8580;SDS011;4328;48.622;9.230;2023-07-28T12:30:18;3.43;;;2.40;;
8580;SDS011;4328;48.622;9.230;2023-07-28T12:32:44;3.37;;;2.50;;
8580;SDS011;4328;48.622;9.230;2023-07-28T12:35:13;2.77;;;2.57;;
8580;SDS011;4328;48.622;9.230;2023-07-28T12:37:39;4.77;;;2.53;;
8580;SDS011;4328;48.622;9.230;2023-07-28T12:40:07;3.83;;;2.60;;
8580;SDS011;4328;48.622;9.230;2023-07-28T12:42:33;4.23;;;2.37;;
8580;SDS011;4328;48.622;9.230;2023-07-28T12:45:00;2.33;;;2.23;;
8580;SDS011;4328;48.622;9.230;2023-07-28T12:47:26;2.70;;;2.50;;
8580;SDS011;4328;48.622;9.230;2023-07-28T12:49:53;3.80;;;2.37;;
8580;SDS011;4328;48.622;9.230;2023-07-28T12:52:22;2.87;;;2.47;;
8580;SDS011;4328;48.622;9.230;2023-07-28T12:54:48;3.00;;;2.47;;
8580;SDS011;4328;48.622;9.230;2023-07-28T12:57:16;2.27;;;2.10;;
8580;SDS011;4328;48.622;9.230;2023-07-28T12:59:43;2.57;;;2.37;;
8580;SDS011;4328;48.622;9.230;2023-07-28T13:02:09;2.57;;;2.37;;
8580;SDS011;4328;48.622;9.230;2023-07-28T13:04:36;2.30;;;2.20;;
8580;SDS011;4328;48.622;9.230;2023-07-28T13:07:02;2.50;;;2.30;;
8580;SDS011;4328;48.622;9.230;2023-07-28T13:09:30;2.33;;;2.17;;
8580;SDS011;4328;48.622;9.230;2023-07-28T13:11:57;2.37;;;2.17;;
8580;SDS011;4328;48.622;9.230;2023-07-28T13:14:23;2.37;;;2.23;;
8580;SDS011;4328;48.622;9.230;2023-07-28T13:16:50;2.70;;;2.50;;
8580;SDS011;4328;48.622;9.230;2023-07-28T13:19:16;2.60;;;2.40;;
8580;SDS011;4328;48.622;9.230;2023-07-28T13:21:42;2.47;;;2.27;;
8580;SDS011;4328;48.622;9.230;2023-07-28T13:24:09;3.03;;;2.27;;
8580;SDS011;4328;48.622;9.230;2023-07-28T13:26:37;2.30;;;2.20;;
8580;SDS011;4328;48.622;9.230;2023-07-28T13:29:03;2.63;;;2.43;;
8580;SDS011;4328;48.622;9.230;2023-07-28T13:31:32;2.50;;;2.30;;
8580;SDS011;4328;48.622;9.230;2023-07-28T13:33:58;2.50;;;2.30;;
8580;SDS011;4328;48.622;9.230;2023-07-28T13:36:25;2.60;;;2.40;;
8580;SDS011;4328;48.622;9.230;2023-07-28T13:38:51;3.83;;;2.70;;
8580;SDS011;4328;48.622;9.230;2023-07-28T13:41:18;3.50;;;2.23;;
8580;SDS011;4328;48.622;9.230;2023-07-28T13:43:45;2.83;;;2.53;;
8580;SDS011;4328;48.622;9.230;2023-07-28T13:46:12;5.30;;;2.57;;
8580;SDS011;4328;48.622;9.230;2023-07-28T13:48:38;2.50;;;2.30;;
8580;SDS011;4328;48.622;9.230;2023-07-28T13:51:05;3.77;;;2.47;;
8580;SDS011;4328;48.622;9.230;2023-07-28T13:53:32;2.80;;;2.40;;
8580;SDS011;4328;48.622;9.230;2023-07-28T13:55:58;2.60;;;2.40;;
8580;SDS011;4328;48.622;9.230;2023-07-28T13:58:25;4.47;;;2.50;;
8580;SDS011;4328;48.622;9.230;2023-07-28T14:00:53;2.57;;;2.37;;
8580;SDS011;4328;48.622;9.230;2023-07-28T14:03:19;3.73;;;2.50;;
8580;SDS011;4328;48.622;9.230;2023-07-28T14:05:45;3.57;;;2.90;;
8580;SDS011;4328;48.622;9.230;2023-07-28T14:08:12;2.73;;;2.53;;
8580;SDS011;4328;48.622;9.230;2023-07-28T14:10:43;2.90;;;2.70;;
8580;SDS011;4328;48.622;9.230;2023-07-28T14:13:09;3.53;;;2.53;;
8580;SDS011;4328;48.622;9.230;2023-07-28T14:15:35;2.53;;;2.33;;
8580;SDS011;4328;48.622;9.230;2023-07-28T14:18:03;3.60;;;2.80;;
8580;SDS011;4328;48.622;9.230;2023-07-28T14:20:30;2.67;;;2.47;;
8580;SDS011;4328;48.622;9.230;2023-07-28T14:22:58;3.00;;;2.80;;
8580;SDS011;4328;48.622;9.230;2023-07-28T14:25:25;3.03;;;2.50;;
8580;SDS011;4328;48.622;9.230;2023-07-28T14:27:52;3.00;;;2.77;;
8580;SDS011;4328;48.622;9.230;2023-07-28T14:30:18;2.80;;;2.60;;
8580;SDS011;4328;48.622;9.230;2023-07-28T14:32:45;4.03;;;2.77;;
8580;SDS011;4328;48.622;9.230;2023-07-28T14:35:13;4.50;;;2.70;;
8580;SDS011;4328;48.622;9.230;2023-07-28T14:37:39;2.87;;;2.63;;
8580;SDS011;4328;48.622;9.230;2023-07-28T14:40:07;2.90;;;2.60;;
8580;SDS011;4328;48.622;9.230;2023-07-28T14:42:33;3.20;;;2.80;;
8580;SDS011;4328;48.622;9.230;2023-07-28T14:44:59;3.00;;;2.80;;
8580;SDS011;4328;48.622;9.230;2023-07-28T14:47:26;4.03;;;3.13;;
8580;SDS011;4328;48.622;9.230;2023-07-28T14:49:53;3.43;;;3.07;;
8580;SDS011;4328;48.622;9.230;2023-07-28T14:52:20;3.70;;;3.00;;
8580;SDS011;4328;48.622;9.230;2023-07-28T14:54:47;3.70;;;3.10;;
8580;SDS011;4328;48.622;9.230;2023-07-28T14:57:13;3.27;;;3.00;;
8580;SDS011;4328;48.622;9.230;2023-07-28T14:59:40;3.50;;;3.23;;
8580;SDS011;4328;48.622;9.230;2023-07-28T15:02:07;3.33;;;2.80;;
8580;SDS011;4328;48.622;9.230;2023-07-28T15:04:33;2.67;;;2.53;;
8580;SDS011;4328;48.622;9.230;2023-07-28T15:06:59;3.07;;;2.87;;
8580;SDS011;4328;48.622;9.230;2023-07-28T15:09:27;2.77;;;2.57;;
8580;SDS011;4328;48.622;9.230;2023-07-28T15:11:53;3.67;;;3.00;;
8580;SDS011;4328;48.622;9.230;2023-07-28T15:14:20;3.00;;;2.67;;
8580;SDS011;4328;48.622;9.230;2023-07-28T15:16:46;2.30;;;2.10;;